createdAt,value
2022-11-13T00:02:23.981Z,53.13
2022-11-13T00:05:45.865Z,52.38
2022-11-13T00:09:07.718Z,54.25
2022-11-13T00:12:30.869Z,55.58
2022-11-13T00:16:00.537Z,53.05
2022-11-13T00:19:22.537Z,54.58
2022-11-13T00:22:44.619Z,53.38
2022-11-13T00:26:08.309Z,52.45
2022-11-13T00:29:29.998Z,53.22
2022-11-13T00:32:53.080Z,52.90
2022-11-13T00:36:17.407Z,54.33
2022-11-13T00:39:39.206Z,52.60
2022-11-13T00:43:01.081Z,51.80
2022-11-13T00:46:22.686Z,51.42
2022-11-13T00:49:45.836Z,50.70
2022-11-13T00:53:08.002Z,53.03
2022-11-13T00:56:29.777Z,55.13
2022-11-13T00:59:51.626Z,54.78
2022-11-13T01:03:14.858Z,54.67
2022-11-13T01:06:38.088Z,53.60
2022-11-13T01:09:59.800Z,54.88
2022-11-13T01:13:21.479Z,57.90
2022-11-13T01:16:43.104Z,58.60
2022-11-13T01:20:06.169Z,61.22
2022-11-13T01:23:29.227Z,60.75
2022-11-13T01:26:51.356Z,62.88
2022-11-13T01:30:13.620Z,63.67
2022-11-13T01:33:35.756Z,62.75
2022-11-13T01:36:57.336Z,61.95
2022-11-13T01:40:20.734Z,65.45
2022-11-13T01:43:42.749Z,65.28
2022-11-13T01:47:04.979Z,68.15
2022-11-13T01:50:27.400Z,66.43
2022-11-13T01:53:49.965Z,65.28
2022-11-13T01:57:14.533Z,66.63
2022-11-13T02:00:46.562Z,64.70
2022-11-13T02:04:08.936Z,62.10
2022-11-13T02:07:30.745Z,62.53
2022-11-13T02:10:52.635Z,60.92
2022-11-13T02:14:17.087Z,62.55
2022-11-13T02:17:44.265Z,60.60
2022-11-13T02:21:17.967Z,60.63
2022-11-13T02:24:45.257Z,58.03
2022-11-13T02:28:07.708Z,59.38
2022-11-13T02:31:29.218Z,58.95
2022-11-13T02:34:50.996Z,55.05
2022-11-13T02:38:12.807Z,54.05
2022-11-13T02:41:35.785Z,52.58
2022-11-13T02:44:57.754Z,52.13
2022-11-13T02:48:19.668Z,54.20
2022-11-13T02:51:41.833Z,50.63
2022-11-13T02:55:03.488Z,51.90
2022-11-13T02:58:26.974Z,52.15
2022-11-13T03:01:49.281Z,51.95
2022-11-13T03:05:15.189Z,52.15
2022-11-13T03:08:39.071Z,50.88
2022-11-13T03:12:00.936Z,53.00
2022-11-13T03:15:24.104Z,51.85
2022-11-13T03:18:45.910Z,50.60
2022-11-13T03:22:07.787Z,49.47
2022-11-13T03:25:29.504Z,50.03
2022-11-13T03:28:51.455Z,48.13
2022-11-13T03:32:14.765Z,46.35
2022-11-13T03:35:44.240Z,48.83
2022-11-13T03:39:08.511Z,49.92
2022-11-13T03:42:30.939Z,48.88
2022-11-13T03:45:52.966Z,48.17
2022-11-13T03:49:15.882Z,51.20
2022-11-13T03:52:37.691Z,51.25
2022-11-13T03:55:59.450Z,51.72
2022-11-13T03:59:21.045Z,51.80
2022-11-13T04:02:42.965Z,48.47
2022-11-13T04:06:06.604Z,48.25
2022-11-13T04:09:28.470Z,48.35
2022-11-13T04:12:50.656Z,46.85
2022-11-13T04:16:12.740Z,45.53
2022-11-13T04:19:34.809Z,44.70
2022-11-13T04:22:58.375Z,44.58
2022-11-13T04:26:22.774Z,46.13
2022-11-13T04:29:44.493Z,46.33
2022-11-13T04:33:07.018Z,45.88
2022-11-13T04:36:28.903Z,46.58
2022-11-13T04:39:52.292Z,47.78
2022-11-13T04:43:13.092Z,45.17
2022-11-13T04:46:34.980Z,46.85
2022-11-13T04:49:57.169Z,47.70
2022-11-13T04:53:18.903Z,44.85
2022-11-13T04:56:42.571Z,46.70
2022-11-13T05:00:05.311Z,47.95
2022-11-13T05:03:26.784Z,47.45
2022-11-13T05:06:48.504Z,46.60
2022-11-13T05:10:11.050Z,44.90
2022-11-13T05:13:37.219Z,45.38
2022-11-13T05:16:59.116Z,44.47
2022-11-13T05:20:20.953Z,46.65
2022-11-13T05:23:42.916Z,46.13
2022-11-13T05:27:04.797Z,45.17
2022-11-13T05:30:28.179Z,45.17
2022-11-13T05:33:50.261Z,44.15
2022-11-13T05:37:12.262Z,46.35
2022-11-13T05:40:33.851Z,44.65
2022-11-13T05:43:59.406Z,44.13
2022-11-13T05:47:23.136Z,44.92
2022-11-13T05:50:44.795Z,42.58
2022-11-13T05:54:06.614Z,44.63
2022-11-13T05:57:28.266Z,43.85
2022-11-13T06:00:50.265Z,42.95
2022-11-13T06:04:13.949Z,44.67
2022-11-13T06:07:35.904Z,43.70
2022-11-13T06:11:01.306Z,42.40
2022-11-13T06:14:23.233Z,43.60
2022-11-13T06:17:47.269Z,42.70
2022-11-13T06:21:12.603Z,44.80
2022-11-13T06:24:34.392Z,46.50
2022-11-13T06:27:56.532Z,45.40
2022-11-13T06:31:20.075Z,43.80
2022-11-13T06:34:42.001Z,44.08
2022-11-13T06:38:05.375Z,42.78
2022-11-13T06:41:29.407Z,42.53
2022-11-13T06:44:51.379Z,41.75
2022-11-13T06:48:13.019Z,41.35
2022-11-13T06:51:35.002Z,40.72
2022-11-13T06:54:57.996Z,41.55
2022-11-13T06:58:19.803Z,42.83
2022-11-13T07:01:41.835Z,41.55
2022-11-13T07:05:03.565Z,41.08
2022-11-13T07:08:26.190Z,41.70
2022-11-13T07:11:49.732Z,40.15
2022-11-13T07:15:11.954Z,41.90
2022-11-13T07:18:34.725Z,42.47
2022-11-13T07:21:56.782Z,39.65
2022-11-13T07:25:18.368Z,40.97
2022-11-13T07:28:49.589Z,41.88
2022-11-13T07:32:11.347Z,38.72
2022-11-13T07:35:33.425Z,35.30
2022-11-13T07:38:59.268Z,33.55
2022-11-13T07:42:21.818Z,32.63
2022-11-13T07:45:45.179Z,35.65
2022-11-13T07:49:07.804Z,35.45
2022-11-13T07:52:30.939Z,34.78
2022-11-13T07:55:53.148Z,32.30
2022-11-13T07:59:15.467Z,30.52
2022-11-13T08:02:39.701Z,29.13
2022-11-13T08:06:03.025Z,27.58
2022-11-13T08:09:24.875Z,26.20
2022-11-13T08:12:47.654Z,27.40
2022-11-13T08:16:09.443Z,28.40
2022-11-13T08:19:32.667Z,25.63
2022-11-13T08:22:57.605Z,24.90
2022-11-13T08:26:20.431Z,23.90
2022-11-13T08:29:42.317Z,23.23
2022-11-13T08:33:04.916Z,23.10
2022-11-13T08:36:28.779Z,20.00
2022-11-13T08:39:50.433Z,19.40
2022-11-13T08:43:12.340Z,19.85
2022-11-13T08:46:38.622Z,21.50
2022-11-13T08:50:00.623Z,17.00
2022-11-13T08:53:25.105Z,19.50
2022-11-13T08:56:54.501Z,24.85
2022-11-13T09:00:18.833Z,25.00
2022-11-13T09:03:40.619Z,21.70
2022-11-13T09:07:02.386Z,21.50
2022-11-13T09:10:26.620Z,19.92
2022-11-13T09:13:52.937Z,17.60
2022-11-13T09:17:15.335Z,18.35
2022-11-13T09:20:37.313Z,18.33
2022-11-13T09:23:58.913Z,19.15
2022-11-13T09:27:22.132Z,19.27
2022-11-13T09:30:44.157Z,19.27
2022-11-13T09:34:06.051Z,18.20
2022-11-13T09:37:27.953Z,17.58
2022-11-13T09:40:53.448Z,16.83
2022-11-13T09:44:21.976Z,17.23
2022-11-13T09:47:47.491Z,16.63
2022-11-13T09:51:15.739Z,17.13
2022-11-13T09:54:38.456Z,17.23
2022-11-13T09:58:08.272Z,18.13
2022-11-13T10:01:49.655Z,16.00
2022-11-13T10:05:22.684Z,19.02
2022-11-13T10:08:54.970Z,17.42
2022-11-13T10:12:17.725Z,14.57
2022-11-13T10:15:41.685Z,22.35
2022-11-13T10:19:16.132Z,47.22
2022-11-13T10:22:42.680Z,25.75
2022-11-13T10:26:15.086Z,22.33
2022-11-13T10:29:36.958Z,18.13
2022-11-13T10:33:05.882Z,19.48
2022-11-13T10:36:39.212Z,12.30
2022-11-13T10:40:01.005Z,15.40
2022-11-13T10:43:25.595Z,14.05
2022-11-13T10:46:47.624Z,20.42
2022-11-13T10:50:13.077Z,15.63
2022-11-13T10:53:41.264Z,13.25
2022-11-13T10:57:05.153Z,12.52
2022-11-13T11:00:32.516Z,13.27
2022-11-13T11:03:54.546Z,13.90
2022-11-13T11:07:21.071Z,13.20
2022-11-13T11:11:12.476Z,14.23
2022-11-13T11:14:39.715Z,12.77
2022-11-13T11:18:04.995Z,13.75
2022-11-13T11:21:31.750Z,12.10
2022-11-13T11:25:02.339Z,13.57
2022-11-13T11:28:32.616Z,11.48
2022-11-13T11:31:57.673Z,12.27
2022-11-13T11:35:23.006Z,10.45
2022-11-13T11:38:54.042Z,9.32
2022-11-13T11:42:25.781Z,10.23
2022-11-13T11:45:49.510Z,10.13
2022-11-13T11:49:12.095Z,9.32
2022-11-13T11:52:57.087Z,9.77
2022-11-13T11:56:26.259Z,8.52
2022-11-13T12:00:04.794Z,11.25
2022-11-13T12:03:59.249Z,18.83
2022-11-13T12:07:34.581Z,11.15
2022-11-13T12:11:03.212Z,11.63
2022-11-13T12:14:35.616Z,10.07
2022-11-13T12:18:06.561Z,10.05
2022-11-13T12:21:40.810Z,10.68
2022-11-13T12:25:15.916Z,10.80
2022-11-13T12:28:44.162Z,11.98
2022-11-13T12:32:18.548Z,12.60
2022-11-13T12:35:41.830Z,12.93
2022-11-13T12:39:27.505Z,13.05
2022-11-13T12:42:55.818Z,14.88
2022-11-13T12:46:18.029Z,15.65
2022-11-13T12:49:39.749Z,13.80
2022-11-13T12:53:03.572Z,10.95
2022-11-13T12:56:35.047Z,78.32
2022-11-13T13:00:00.527Z,36.42
2022-11-13T13:03:45.782Z,25.33
2022-11-13T13:07:23.018Z,16.73
2022-11-13T13:10:56.219Z,18.23
2022-11-13T13:14:44.091Z,14.38
2022-11-13T13:18:10.094Z,13.27
2022-11-13T13:21:41.878Z,11.15
2022-11-13T13:25:09.381Z,14.95
2022-11-13T13:28:41.154Z,12.98
2022-11-13T13:32:16.575Z,13.68
2022-11-13T13:35:48.179Z,12.13
2022-11-13T13:39:24.087Z,10.38
2022-11-13T13:43:10.790Z,12.63
2022-11-13T13:46:34.647Z,12.38
2022-11-13T13:49:59.088Z,11.90
2022-11-13T13:53:26.643Z,12.90
2022-11-13T13:56:49.151Z,14.25
2022-11-13T14:00:14.550Z,17.45
2022-11-13T14:03:37.316Z,14.15
2022-11-13T14:07:02.796Z,17.98
2022-11-13T14:10:26.385Z,18.70
2022-11-13T14:13:48.309Z,18.70
2022-11-13T14:17:11.974Z,23.40
2022-11-13T14:20:43.188Z,24.10
2022-11-13T14:24:10.015Z,25.90
2022-11-13T14:27:32.008Z,24.67
2022-11-13T14:30:56.468Z,24.50
2022-11-13T14:34:22.190Z,24.30
2022-11-13T14:37:48.662Z,24.38
2022-11-13T14:41:22.619Z,23.27
2022-11-13T14:44:44.444Z,20.83
2022-11-13T14:48:20.133Z,22.05
2022-11-13T14:51:42.451Z,23.85
2022-11-13T14:55:15.863Z,25.77
2022-11-13T14:58:43.787Z,34.17
2022-11-13T15:02:07.000Z,37.30
2022-11-13T15:05:29.284Z,33.28
2022-11-13T15:08:55.470Z,32.95
2022-11-13T15:12:17.453Z,36.17
2022-11-13T15:15:40.773Z,34.70
2022-11-13T15:19:06.089Z,41.60
2022-11-13T15:22:28.844Z,49.67
2022-11-13T15:25:50.794Z,28.95
2022-11-13T15:29:12.795Z,27.30
2022-11-13T15:32:37.788Z,32.25
2022-11-13T15:36:00.490Z,34.15
2022-11-13T15:39:23.961Z,34.67
2022-11-13T15:42:46.854Z,40.70
2022-11-13T15:46:14.796Z,40.70
2022-11-13T15:49:40.700Z,38.90
2022-11-13T15:53:12.465Z,36.47
2022-11-13T15:56:34.538Z,33.45
2022-11-13T15:59:58.277Z,36.35
2022-11-13T16:03:20.995Z,38.00
2022-11-13T16:06:49.490Z,39.67
2022-11-13T16:10:15.013Z,51.25
2022-11-13T16:13:37.092Z,55.60
2022-11-13T16:16:59.196Z,55.03
2022-11-13T16:20:21.096Z,48.55
2022-11-13T16:23:44.676Z,42.05
2022-11-13T16:27:06.921Z,44.80
2022-11-13T16:30:31.430Z,46.40
2022-11-13T16:33:53.648Z,39.30
2022-11-13T16:37:17.708Z,37.13
2022-11-13T16:40:46.643Z,44.20
2022-11-13T16:44:09.238Z,43.95
2022-11-13T16:47:32.668Z,65.15
2022-11-13T16:50:54.757Z,45.53
2022-11-13T16:54:16.911Z,44.00
2022-11-13T16:57:40.436Z,43.15
2022-11-13T17:01:02.090Z,49.35
2022-11-13T17:04:24.098Z,41.60
2022-11-13T17:07:49.914Z,38.78
2022-11-13T17:11:15.019Z,40.28
2022-11-13T17:14:39.057Z,41.80
2022-11-13T17:18:01.373Z,42.88
2022-11-13T17:21:24.811Z,40.88
2022-11-13T17:24:47.647Z,41.70
2022-11-13T17:28:09.538Z,43.97
2022-11-13T17:31:32.768Z,44.75
2022-11-13T17:34:54.828Z,34.92
2022-11-13T17:38:17.127Z,38.65
2022-11-13T17:41:40.915Z,34.45
2022-11-13T17:45:03.054Z,36.28
2022-11-13T17:48:26.168Z,35.75
2022-11-13T17:51:48.435Z,44.58
2022-11-13T17:55:13.075Z,47.28
2022-11-13T17:58:39.809Z,38.83
2022-11-13T18:02:01.855Z,39.60
2022-11-13T18:05:25.305Z,38.10
2022-11-13T18:08:47.944Z,48.42
2022-11-13T18:12:10.265Z,43.50
2022-11-13T18:15:32.217Z,44.67
2022-11-13T18:18:55.651Z,63.20
2022-11-13T18:22:19.253Z,116.22
2022-11-13T18:25:41.008Z,79.53
2022-11-13T18:29:03.424Z,57.42
2022-11-13T18:32:25.336Z,51.50
2022-11-13T18:35:47.646Z,46.45
2022-11-13T18:39:16.542Z,61.88
2022-11-13T18:42:40.436Z,48.27
2022-11-13T18:46:04.870Z,43.80
2022-11-13T18:49:26.684Z,54.95
2022-11-13T18:52:48.815Z,40.97
2022-11-13T18:56:14.399Z,38.33
2022-11-13T18:59:36.536Z,38.40
2022-11-13T19:02:58.693Z,60.05
2022-11-13T19:06:25.339Z,51.80
2022-11-13T19:09:50.708Z,59.55
2022-11-13T19:13:14.068Z,68.18
2022-11-13T19:16:37.213Z,60.53
2022-11-13T19:19:59.204Z,56.85
2022-11-13T19:23:21.603Z,57.22
2022-11-13T19:26:44.071Z,68.97
2022-11-13T19:30:08.218Z,66.10
2022-11-13T19:33:30.770Z,64.60
2022-11-13T19:36:54.402Z,68.63
2022-11-13T19:40:17.500Z,61.45
2022-11-13T19:43:41.077Z,62.33
2022-11-13T19:47:04.687Z,62.33
2022-11-13T19:50:26.943Z,78.57
2022-11-13T19:53:53.491Z,61.03
2022-11-13T19:57:15.621Z,51.30
2022-11-13T20:00:38.004Z,55.22
2022-11-13T20:04:03.000Z,59.97
2022-11-13T20:07:25.469Z,42.47
2022-11-13T20:10:47.764Z,53.50
2022-11-13T20:14:11.731Z,51.13
2022-11-13T20:17:35.917Z,51.95
2022-11-13T20:21:00.306Z,46.85
2022-11-13T20:24:21.973Z,45.65
2022-11-13T20:27:47.319Z,44.30
2022-11-13T20:31:19.634Z,42.95
2022-11-13T20:34:41.975Z,46.92
2022-11-13T20:38:05.365Z,44.65
2022-11-13T20:41:29.089Z,44.55
2022-11-13T20:44:56.175Z,44.00
2022-11-13T20:48:24.927Z,45.67
2022-11-13T20:51:47.182Z,42.95
2022-11-13T20:55:14.369Z,44.45
2022-11-13T20:58:39.588Z,46.90
2022-11-13T21:02:01.953Z,44.70
2022-11-13T21:05:24.183Z,43.92
2022-11-13T21:08:47.615Z,44.40
2022-11-13T21:12:11.665Z,42.50
2022-11-13T21:15:34.607Z,50.47
2022-11-13T21:18:57.100Z,47.80
2022-11-13T21:22:18.895Z,46.38
2022-11-13T21:25:40.832Z,52.13
2022-11-13T21:29:04.043Z,41.25
2022-11-13T21:32:25.964Z,46.45
2022-11-13T21:35:47.798Z,46.05
2022-11-13T21:39:09.998Z,48.88
2022-11-13T21:42:31.540Z,49.10
2022-11-13T21:45:54.812Z,45.33
2022-11-13T21:49:16.919Z,42.60
2022-11-13T21:52:38.681Z,38.60
2022-11-13T21:56:00.884Z,40.03
2022-11-13T21:59:23.255Z,38.35
2022-11-13T22:02:46.314Z,37.53
2022-11-13T22:06:19.394Z,39.65
2022-11-13T22:09:41.327Z,39.38
2022-11-13T22:13:03.507Z,38.63
2022-11-13T22:16:26.546Z,42.92
2022-11-13T22:19:49.809Z,44.00
2022-11-13T22:23:11.935Z,43.63
2022-11-13T22:26:37.685Z,41.20
2022-11-13T22:30:00.242Z,40.67
2022-11-13T22:33:22.331Z,44.38
2022-11-13T22:36:46.140Z,43.08
2022-11-13T22:40:09.392Z,43.97
2022-11-13T22:43:36.701Z,43.90
2022-11-13T22:46:58.574Z,43.67
2022-11-13T22:50:20.590Z,45.47
2022-11-13T22:53:48.677Z,44.67
2022-11-13T22:57:10.847Z,47.17
2022-11-13T23:00:32.455Z,45.75
2022-11-13T23:03:55.982Z,42.13
2022-11-13T23:07:17.841Z,44.97
2022-11-13T23:10:41.126Z,48.10
2022-11-13T23:14:05.660Z,44.13
2022-11-13T23:17:27.401Z,43.38
2022-11-13T23:20:49.295Z,45.95
2022-11-13T23:24:11.942Z,45.55
2022-11-13T23:27:34.909Z,42.90
2022-11-13T23:30:56.922Z,45.70
2022-11-13T23:34:38.294Z,44.05
2022-11-13T23:38:00.822Z,42.00
2022-11-13T23:41:22.945Z,41.13
2022-11-13T23:44:46.295Z,38.88
2022-11-13T23:48:08.266Z,39.38
2022-11-13T23:51:30.618Z,36.88
2022-11-13T23:54:52.400Z,38.33
2022-11-13T23:58:18.263Z,37.72
